createdAt,value
2018-12-15T00:01:22.728Z,95073.58
2018-12-15T00:03:51.240Z,95074.77
2018-12-15T00:06:19.562Z,95085.44
2018-12-15T00:08:47.985Z,95081.26
2018-12-15T00:11:16.510Z,95085.61
2018-12-15T00:13:44.884Z,95086.95
2018-12-15T00:16:13.247Z,95081.50
2018-12-15T00:18:42.048Z,95072.23
2018-12-15T00:21:10.641Z,95076.62
2018-12-15T00:23:39.004Z,95076.42
2018-12-15T00:26:07.418Z,95088.05
2018-12-15T00:28:35.774Z,95082.76
2018-12-15T00:31:04.073Z,95077.49
2018-12-15T00:33:32.367Z,95079.17
2018-12-15T00:36:00.495Z,95073.11
2018-12-15T00:38:28.765Z,95059.23
2018-12-15T00:40:57.031Z,95053.83
2018-12-15T00:43:25.419Z,95069.14
2018-12-15T00:45:53.823Z,95065.60
2018-12-15T00:48:22.165Z,95063.87
2018-12-15T00:50:50.467Z,95058.34
2018-12-15T00:53:19.068Z,95061.76
2018-12-15T00:55:47.489Z,95059.85
2018-12-15T00:58:16.246Z,95059.61
2018-12-15T01:00:44.663Z,95050.50
2018-12-15T01:03:13.003Z,95054.52
2018-12-15T01:05:41.773Z,95058.58
2018-12-15T01:08:10.233Z,95060.14
2018-12-15T01:10:38.540Z,95069.43
2018-12-15T01:13:06.734Z,95060.39
2018-12-15T01:15:40.455Z,95056.52
2018-12-15T01:18:08.706Z,95055.14
2018-12-15T01:20:37.354Z,95063.95
2018-12-15T01:23:05.770Z,95064.78
2018-12-15T01:25:34.040Z,95053.11
2018-12-15T01:28:02.283Z,95055.16
2018-12-15T01:30:30.625Z,95060.64
2018-12-15T01:32:59.077Z,95015.89
2018-12-15T01:35:27.360Z,95041.66
2018-12-15T01:37:55.604Z,95042.67
2018-12-15T01:40:23.848Z,95049.86
2018-12-15T01:42:52.130Z,95049.43
2018-12-15T01:45:20.467Z,95046.66
2018-12-15T01:47:48.918Z,95044.61
2018-12-15T01:50:17.374Z,95009.79
2018-12-15T01:52:46.126Z,95017.34
2018-12-15T01:55:14.593Z,95028.70
2018-12-15T01:57:43.137Z,95023.28
2018-12-15T02:00:12.981Z,95046.02
2018-12-15T02:02:41.466Z,95029.45
2018-12-15T02:05:09.811Z,95040.66
2018-12-15T02:07:38.292Z,95034.52
2018-12-15T02:10:08.216Z,95039.16
2018-12-15T02:12:36.555Z,95023.28
2018-12-15T02:15:07.177Z,95017.50
2018-12-15T02:17:35.476Z,95017.52
2018-12-15T02:20:04.679Z,95021.80
2018-12-15T02:22:33.008Z,95014.45
2018-12-15T02:25:01.378Z,95017.63
2018-12-15T02:27:29.821Z,95022.17
2018-12-15T02:29:58.253Z,95010.83
2018-12-15T02:32:26.759Z,95013.50
2018-12-15T02:34:54.967Z,95022.94
2018-12-15T02:37:23.275Z,95011.61
2018-12-15T02:39:51.563Z,95035.73
2018-12-15T02:42:19.912Z,95030.16
2018-12-15T02:44:48.375Z,95012.21
2018-12-15T02:47:16.809Z,95018.27
2018-12-15T02:49:45.139Z,95022.48
2018-12-15T02:52:13.866Z,95015.85
2018-12-15T02:54:42.214Z,95020.14
2018-12-15T02:57:10.555Z,95027.33
2018-12-15T02:59:38.957Z,95003.95
2018-12-15T03:02:07.278Z,95004.31
2018-12-15T03:04:35.493Z,94999.95
2018-12-15T03:07:03.759Z,95003.68
2018-12-15T03:09:32.102Z,95017.22
2018-12-15T03:12:00.319Z,95008.03
2018-12-15T03:14:28.847Z,95008.06
2018-12-15T03:17:06.691Z,95014.48
2018-12-15T03:19:35.047Z,95027.77
2018-12-15T03:22:03.496Z,95004.41
2018-12-15T03:24:31.781Z,95025.89
2018-12-15T03:27:00.109Z,95030.13
2018-12-15T03:29:28.604Z,95015.05
2018-12-15T03:31:56.846Z,95020.30
2018-12-15T03:34:25.059Z,95034.13
2018-12-15T03:36:53.328Z,95038.72
2018-12-15T03:39:21.742Z,95025.80
2018-12-15T03:41:50.472Z,95027.48
2018-12-15T03:44:18.971Z,95029.25
2018-12-15T03:46:47.254Z,95032.67
2018-12-15T03:49:15.712Z,95029.73
2018-12-15T03:51:44.189Z,95027.46
2018-12-15T03:54:12.688Z,95025.45
2018-12-15T03:56:41.080Z,95026.38
2018-12-15T03:59:09.493Z,95015.29
2018-12-15T04:01:38.041Z,95029.11
2018-12-15T04:04:06.476Z,95014.94
2018-12-15T04:06:34.835Z,95009.88
2018-12-15T04:09:04.636Z,95021.61
2018-12-15T04:11:32.910Z,95021.98
2018-12-15T04:14:01.452Z,95020.36
2018-12-15T04:16:29.816Z,95022.42
2018-12-15T04:18:58.087Z,95026.34
2018-12-15T04:21:26.637Z,95025.42
2018-12-15T04:23:55.086Z,95010.13
2018-12-15T04:26:23.483Z,95017.33
2018-12-15T04:28:51.898Z,95030.60
2018-12-15T04:31:20.192Z,95023.52
2018-12-15T04:33:48.793Z,95012.01
2018-12-15T04:36:18.820Z,95011.17
2018-12-15T04:38:47.390Z,95006.47
2018-12-15T04:41:15.882Z,95009.70
2018-12-15T04:43:44.483Z,95017.34
2018-12-15T04:46:12.932Z,95003.61
2018-12-15T04:48:41.254Z,95003.09
2018-12-15T04:51:09.975Z,95019.30
2018-12-15T04:53:38.489Z,95012.62
2018-12-15T04:56:06.928Z,95011.81
2018-12-15T04:58:35.231Z,95004.13
2018-12-15T05:01:03.705Z,95014.02
2018-12-15T05:03:32.199Z,95018.42
2018-12-15T05:06:00.450Z,95029.37
2018-12-15T05:08:28.995Z,95015.38
2018-12-15T05:10:57.507Z,95022.08
2018-12-15T05:13:26.028Z,95025.32
2018-12-15T05:15:54.740Z,95025.70
2018-12-15T05:18:23.278Z,95014.59
2018-12-15T05:20:52.312Z,95009.89
2018-12-15T05:23:21.380Z,95025.64
2018-12-15T05:25:49.796Z,95018.27
2018-12-15T05:28:18.146Z,95022.70
2018-12-15T05:30:46.711Z,95026.47
2018-12-15T05:33:16.064Z,95017.46
2018-12-15T05:35:44.473Z,95022.94
2018-12-15T05:38:12.698Z,95026.98
2018-12-15T05:40:41.473Z,95012.27
2018-12-15T05:43:09.832Z,95015.78
2018-12-15T05:45:38.330Z,95026.36
2018-12-15T05:48:06.604Z,95020.53
2018-12-15T05:50:35.884Z,95011.53
2018-12-15T05:53:04.250Z,95016.18
2018-12-15T05:55:32.617Z,95006.42
2018-12-15T05:58:01.187Z,95027.03
2018-12-15T06:00:29.826Z,95027.03
2018-12-15T06:02:58.383Z,95027.14
2018-12-15T06:05:27.328Z,95023.84
2018-12-15T06:07:55.996Z,95023.67
2018-12-15T06:10:24.482Z,95019.93
2018-12-15T06:12:53.350Z,95024.02
2018-12-15T06:15:21.723Z,95024.25
2018-12-15T06:17:49.992Z,95023.95
2018-12-15T06:20:18.570Z,95018.90
2018-12-15T06:22:46.965Z,95013.31
2018-12-15T06:25:15.983Z,95017.29
2018-12-15T06:27:44.442Z,95020.73
2018-12-15T06:30:13.099Z,95021.91
2018-12-15T06:32:41.501Z,95032.10
2018-12-15T06:35:10.370Z,95033.58
2018-12-15T06:37:39.100Z,95034.75
2018-12-15T06:40:07.773Z,95040.91
2018-12-15T06:42:36.273Z,95037.16
2018-12-15T06:45:05.427Z,95032.23
2018-12-15T06:47:34.010Z,95043.38
2018-12-15T06:50:02.960Z,95044.81
2018-12-15T06:52:31.944Z,95049.13
2018-12-15T06:55:03.386Z,95048.41
2018-12-15T06:57:32.264Z,95046.69
2018-12-15T07:00:00.928Z,95034.52
2018-12-15T07:02:30.417Z,95049.92
2018-12-15T07:04:59.042Z,95050.56
2018-12-15T07:07:27.652Z,95057.36
2018-12-15T07:09:56.153Z,95048.46
2018-12-15T07:12:24.694Z,95057.57
2018-12-15T07:14:53.115Z,95062.31
2018-12-15T07:17:21.557Z,95061.80
2018-12-15T07:19:50.174Z,95071.96
2018-12-15T07:22:18.779Z,95062.53
2018-12-15T07:24:47.145Z,95065.54
2018-12-15T07:27:21.351Z,95065.55
2018-12-15T07:29:49.752Z,95067.00
2018-12-15T07:32:18.363Z,95059.89
2018-12-15T07:34:46.633Z,95061.36
2018-12-15T07:37:15.054Z,95069.27
2018-12-15T07:39:43.389Z,95076.25
2018-12-15T07:42:11.787Z,95069.43
2018-12-15T07:44:40.114Z,95070.16
2018-12-15T07:47:08.637Z,95072.41
2018-12-15T07:49:37.131Z,95084.30
2018-12-15T07:52:05.875Z,95069.04
2018-12-15T07:54:34.698Z,95071.88
2018-12-15T07:57:03.447Z,95074.30
2018-12-15T07:59:31.975Z,95073.95
2018-12-15T08:02:00.411Z,95081.67
2018-12-15T08:04:28.790Z,95085.44
2018-12-15T08:06:56.972Z,95094.34
2018-12-15T08:09:26.906Z,95095.72
2018-12-15T08:12:00.848Z,95103.84
2018-12-15T08:14:29.301Z,95100.83
2018-12-15T08:16:57.707Z,95104.13
2018-12-15T08:19:26.305Z,95083.53
2018-12-15T08:21:54.803Z,95086.55
2018-12-15T08:24:23.775Z,95090.44
2018-12-15T08:26:52.195Z,95085.07
2018-12-15T08:29:20.847Z,95088.33
2018-12-15T08:31:49.322Z,95081.02
2018-12-15T08:34:17.759Z,95078.17
2018-12-15T08:36:46.071Z,95078.88
2018-12-15T08:39:14.402Z,95094.39
2018-12-15T08:41:42.764Z,95090.29
2018-12-15T08:44:11.007Z,95092.35
2018-12-15T08:46:39.270Z,95087.23
2018-12-15T08:49:07.659Z,95084.37
2018-12-15T08:51:36.120Z,95091.09
2018-12-15T08:54:04.703Z,95084.30
2018-12-15T08:56:34.205Z,95081.48
2018-12-15T08:59:02.818Z,95068.06
2018-12-15T09:01:31.101Z,95078.80
2018-12-15T09:03:59.581Z,95085.86
2018-12-15T09:06:28.048Z,95076.87
2018-12-15T09:08:56.431Z,95072.98
2018-12-15T09:11:24.813Z,95055.23
2018-12-15T09:13:53.164Z,95064.27
2018-12-15T09:16:26.463Z,95065.62
2018-12-15T09:18:53.303Z,94886.19
2018-12-15T09:21:21.869Z,95061.34
2018-12-15T09:23:50.375Z,95071.64
2018-12-15T09:26:18.738Z,95063.61
2018-12-15T09:28:47.091Z,95050.28
2018-12-15T09:31:15.496Z,95050.70
2018-12-15T09:33:44.073Z,95045.31
2018-12-15T09:36:12.762Z,95049.34
2018-12-15T09:38:41.271Z,95037.73
2018-12-15T09:41:09.673Z,95043.92
2018-12-15T09:43:38.213Z,95041.76
2018-12-15T09:46:06.582Z,95037.98
2018-12-15T09:48:35.079Z,95038.91
2018-12-15T09:51:03.648Z,95042.23
2018-12-15T09:53:32.414Z,95033.19
2018-12-15T09:56:01.137Z,95024.42
2018-12-15T09:58:29.615Z,95029.98
2018-12-15T10:00:58.125Z,95031.07
2018-12-15T10:03:26.508Z,95028.23
2018-12-15T10:05:54.849Z,95039.45
2018-12-15T10:08:23.486Z,95031.39
2018-12-15T10:10:51.772Z,95025.21
2018-12-15T10:13:19.995Z,95029.33
2018-12-15T10:15:49.123Z,95030.73
2018-12-15T10:18:17.526Z,95028.55
2018-12-15T10:20:45.853Z,95023.16
2018-12-15T10:23:14.226Z,95033.27
2018-12-15T10:25:42.658Z,95038.20
2018-12-15T10:28:11.427Z,95035.42
2018-12-15T10:30:45.325Z,95031.59
2018-12-15T10:33:13.607Z,95024.42
2018-12-15T10:35:42.036Z,95029.73
2018-12-15T10:38:10.464Z,95027.31
2018-12-15T10:40:38.923Z,95009.34
2018-12-15T10:43:07.340Z,94977.25
2018-12-15T10:45:35.795Z,95001.80
2018-12-15T10:48:04.488Z,94984.66
2018-12-15T10:50:32.845Z,94976.13
2018-12-15T10:53:01.131Z,94974.98
2018-12-15T10:55:29.586Z,94969.36
2018-12-15T10:57:58.013Z,94962.97
2018-12-15T11:00:32.470Z,94954.30
2018-12-15T11:03:00.893Z,94955.80
2018-12-15T11:05:29.211Z,94961.94
2018-12-15T11:07:57.527Z,94943.31
2018-12-15T11:10:25.872Z,94934.88
2018-12-15T11:12:54.003Z,94937.12
2018-12-15T11:15:22.378Z,94933.44
2018-12-15T11:17:50.665Z,94924.21
2018-12-15T11:20:19.071Z,94924.41
2018-12-15T11:22:47.280Z,94934.95
2018-12-15T11:25:15.850Z,94926.42
2018-12-15T11:27:44.183Z,94924.82
2018-12-15T11:30:12.761Z,94918.53
2018-12-15T11:32:41.400Z,94922.39
2018-12-15T11:35:09.742Z,94924.47
2018-12-15T11:37:38.152Z,94918.91
2018-12-15T11:40:07.283Z,94918.55
2018-12-15T11:42:35.583Z,94916.27
2018-12-15T11:45:04.280Z,94921.16
2018-12-15T11:47:33.085Z,94922.48
2018-12-15T11:50:01.809Z,94914.04
2018-12-15T11:52:30.223Z,94908.66
2018-12-15T11:54:58.821Z,94901.80
2018-12-15T11:57:27.457Z,94912.35
2018-12-15T11:59:55.954Z,94908.16
2018-12-15T12:02:24.424Z,94909.29
2018-12-15T12:04:52.941Z,94904.27
2018-12-15T12:07:22.159Z,94895.88
2018-12-15T12:09:50.949Z,94897.47
2018-12-15T12:12:19.360Z,94888.50
2018-12-15T12:14:47.865Z,94886.90
2018-12-15T12:17:16.506Z,94894.39
2018-12-15T12:19:50.197Z,94892.41
2018-12-15T12:22:15.870Z,94879.28
2018-12-15T12:24:44.759Z,94877.78
2018-12-15T12:27:13.405Z,94875.80
2018-12-15T12:29:43.249Z,94872.74
2018-12-15T12:32:11.767Z,94885.64
2018-12-15T12:34:40.159Z,94897.31
2018-12-15T12:37:08.590Z,94887.62
2018-12-15T12:39:36.900Z,94888.54
2018-12-15T12:42:05.307Z,94879.65
2018-12-15T12:44:33.776Z,94888.21
2018-12-15T12:47:03.240Z,94890.22
2018-12-15T12:49:31.593Z,94893.22
2018-12-15T12:52:00.134Z,94893.06
2018-12-15T12:54:28.387Z,94888.53
2018-12-15T12:56:56.669Z,94890.89
2018-12-15T12:59:25.123Z,94891.73
2018-12-15T13:01:53.559Z,94888.02
2018-12-15T13:04:21.857Z,94892.72
2018-12-15T13:06:51.408Z,94893.30
2018-12-15T13:09:20.160Z,94909.50
2018-12-15T13:11:48.694Z,94901.43
2018-12-15T13:14:17.155Z,94894.37
2018-12-15T13:16:45.492Z,94896.39
2018-12-15T13:19:13.852Z,94898.21
2018-12-15T13:21:42.146Z,94893.67
2018-12-15T13:24:10.492Z,94910.19
2018-12-15T13:26:38.771Z,94900.38
2018-12-15T13:29:07.211Z,94908.11
2018-12-15T13:31:35.723Z,94894.70
2018-12-15T13:34:04.315Z,94900.55
2018-12-15T13:36:32.590Z,94901.56
2018-12-15T13:39:01.020Z,94910.95
2018-12-15T13:41:29.302Z,94909.97
2018-12-15T13:43:57.587Z,94914.30
2018-12-15T13:46:25.916Z,94911.78
2018-12-15T13:48:54.173Z,94915.95
2018-12-15T13:51:22.437Z,94900.22
2018-12-15T13:53:51.371Z,94894.23
2018-12-15T13:56:19.783Z,94895.08
2018-12-15T13:58:48.099Z,94904.66
2018-12-15T14:01:16.496Z,94910.13
2018-12-15T14:03:44.839Z,94918.42
2018-12-15T14:06:13.207Z,94916.67
2018-12-15T14:08:41.809Z,94913.16
2018-12-15T14:11:10.234Z,94918.02
2018-12-15T14:13:38.783Z,94915.68
2018-12-15T14:16:07.652Z,94913.58
2018-12-15T14:18:37.299Z,94910.73
2018-12-15T14:21:05.676Z,94912.14
2018-12-15T14:23:34.087Z,94900.73
2018-12-15T14:26:04.759Z,94892.17
2018-12-15T14:28:33.418Z,94873.40
2018-12-15T14:31:01.824Z,94891.66
2018-12-15T14:33:30.166Z,94918.05
2018-12-15T14:35:58.815Z,94912.67
2018-12-15T14:38:27.537Z,94903.25
2018-12-15T14:40:56.040Z,94890.83
2018-12-15T14:46:22.341Z,94883.64
2018-12-15T14:48:50.583Z,94881.95
2018-12-15T14:51:18.963Z,94887.06
2018-12-15T14:53:47.399Z,94889.66
2018-12-15T14:56:15.754Z,94883.80
2018-12-15T14:58:43.984Z,94894.28
2018-12-15T15:01:12.700Z,94897.89
2018-12-15T15:03:41.131Z,94895.20
2018-12-15T15:06:09.699Z,94881.34
2018-12-15T15:08:38.331Z,94875.92
2018-12-15T15:11:06.959Z,94871.55
2018-12-15T15:13:35.431Z,94868.19
2018-12-15T15:16:03.859Z,94873.23
2018-12-15T15:18:32.502Z,94872.88
2018-12-15T15:21:00.823Z,94878.92
2018-12-15T15:23:29.141Z,94872.15
2018-12-15T15:25:57.479Z,94867.17
2018-12-15T15:28:25.769Z,94868.03
2018-12-15T15:30:53.992Z,94874.38
2018-12-15T15:33:22.244Z,94870.04
2018-12-15T15:35:50.651Z,94868.19
2018-12-15T15:38:18.971Z,94878.41
2018-12-15T15:40:47.533Z,94874.89
2018-12-15T15:43:15.859Z,94855.25
2018-12-15T15:45:44.277Z,94880.61
2018-12-15T15:48:12.791Z,94880.10
2018-12-15T15:50:41.511Z,94874.95
2018-12-15T15:53:09.734Z,94864.17
2018-12-15T15:55:38.118Z,94877.58
2018-12-15T15:58:06.714Z,94883.45
2018-12-15T16:00:35.224Z,94874.42
2018-12-15T16:03:03.731Z,94871.89
2018-12-15T16:05:32.245Z,94871.22
2018-12-15T16:08:00.609Z,94880.10
2018-12-15T16:10:29.186Z,94876.91
2018-12-15T16:12:57.488Z,94871.06
2018-12-15T16:15:26.122Z,94865.60
2018-12-15T16:17:54.634Z,94851.59
2018-12-15T16:20:23.489Z,94874.73
2018-12-15T16:22:51.935Z,94870.04
2018-12-15T16:25:21.141Z,94866.02
2018-12-15T16:27:49.391Z,94859.73
2018-12-15T16:30:17.923Z,94869.69
2018-12-15T16:32:46.424Z,94861.58
2018-12-15T16:35:14.882Z,94865.86
2018-12-15T16:37:43.278Z,94867.19
2018-12-15T16:40:11.630Z,94867.96
2018-12-15T16:42:40.006Z,94868.70
2018-12-15T16:45:10.404Z,94866.69
2018-12-15T16:47:38.944Z,94866.53
2018-12-15T16:50:10.986Z,94869.53
2018-12-15T16:52:39.761Z,94862.31
2018-12-15T16:55:08.478Z,94859.47
2018-12-15T16:57:36.787Z,94870.71
2018-12-15T17:00:07.772Z,94869.39
2018-12-15T17:02:36.440Z,94867.80
2018-12-15T17:05:05.359Z,94868.53
2018-12-15T17:07:33.687Z,94862.69
2018-12-15T17:10:02.077Z,94871.47
2018-12-15T17:12:30.478Z,94862.50
2018-12-15T17:14:59.903Z,94863.51
2018-12-15T17:17:28.604Z,94866.19
2018-12-15T17:19:57.447Z,94863.35
2018-12-15T17:22:26.101Z,94855.30
2018-12-15T17:24:54.650Z,94858.81
2018-12-15T17:27:36.039Z,94861.33
2018-12-15T17:30:05.589Z,94855.48
2018-12-15T17:32:33.828Z,94861.08
2018-12-15T17:35:02.179Z,94851.02
2018-12-15T17:37:31.000Z,94854.95
2018-12-15T17:39:59.233Z,94843.83
2018-12-15T17:42:27.806Z,94835.67
2018-12-15T17:47:24.153Z,94847.93
2018-12-15T17:49:52.406Z,94854.64
2018-12-15T17:52:20.660Z,94859.81
2018-12-15T17:54:49.126Z,94850.52
2018-12-15T17:57:17.373Z,94859.64
2018-12-15T17:59:45.839Z,94869.80
2018-12-15T18:02:14.279Z,94877.69
2018-12-15T18:04:42.861Z,94866.69
2018-12-15T18:07:11.136Z,94862.81
2018-12-15T18:09:39.392Z,94860.44
2018-12-15T18:12:08.117Z,94859.71
2018-12-15T18:14:36.436Z,94854.89
2018-12-15T18:17:04.704Z,94857.58
2018-12-15T18:19:33.806Z,94848.20
2018-12-15T18:22:02.099Z,94859.23
2018-12-15T18:24:30.495Z,94850.33
2018-12-15T18:26:58.866Z,94855.02
2018-12-15T18:29:27.380Z,94868.14
2018-12-15T18:31:55.834Z,94867.84
2018-12-15T18:34:24.761Z,94862.33
2018-12-15T18:36:53.203Z,94871.23
2018-12-15T18:39:22.227Z,94870.05
2018-12-15T18:41:50.736Z,94871.55
2018-12-15T18:44:19.329Z,94839.01
2018-12-15T18:46:48.163Z,94867.90
2018-12-15T18:49:18.228Z,94855.89
2018-12-15T18:51:46.903Z,94867.66
2018-12-15T18:54:15.330Z,94863.95
2018-12-15T18:56:43.909Z,94861.61
2018-12-15T18:59:12.885Z,94858.58
2018-12-15T19:01:41.463Z,94858.84
2018-12-15T19:04:09.891Z,94857.14
2018-12-15T19:06:38.464Z,94863.37
2018-12-15T19:09:08.047Z,94853.45
2018-12-15T19:11:36.798Z,94847.02
2018-12-15T19:14:05.118Z,94836.16
2018-12-15T19:16:33.464Z,94843.39
2018-12-15T19:19:02.017Z,94853.80
2018-12-15T19:21:30.560Z,94849.88
2018-12-15T19:23:59.043Z,94845.59
2018-12-15T19:26:27.627Z,94852.46
2018-12-15T19:28:57.415Z,94846.23
2018-12-15T19:31:26.837Z,94851.41
2018-12-15T19:33:55.409Z,94842.45
2018-12-15T19:36:24.341Z,94846.41
2018-12-15T19:38:53.293Z,94847.20
2018-12-15T19:41:22.019Z,94794.36
2018-12-15T19:43:51.880Z,94827.40
2018-12-15T19:46:20.390Z,94826.60
2018-12-15T19:48:49.030Z,94821.25
2018-12-15T19:51:29.583Z,94827.12
2018-12-15T19:53:55.607Z,94823.26
2018-12-15T19:56:26.905Z,94827.31
2018-12-15T19:58:55.788Z,94830.30
2018-12-15T20:01:24.367Z,94839.43
2018-12-15T20:03:52.722Z,94847.38
2018-12-15T20:06:21.365Z,94843.67
2018-12-15T20:08:49.922Z,94825.02
2018-12-15T20:11:18.272Z,94829.87
2018-12-15T20:13:46.686Z,94810.59
2018-12-15T20:16:15.069Z,94816.63
2018-12-15T20:18:46.746Z,94829.74
2018-12-15T20:21:15.052Z,94837.42
2018-12-15T20:23:43.392Z,94832.09
2018-12-15T20:26:11.809Z,94838.77
2018-12-15T20:28:40.141Z,94843.91
2018-12-15T20:31:08.623Z,94849.41
2018-12-15T20:33:37.069Z,94845.47
2018-12-15T20:36:05.566Z,94835.91
2018-12-15T20:38:33.938Z,94848.70
2018-12-15T20:41:02.173Z,94842.67
2018-12-15T20:43:30.364Z,94853.38
2018-12-15T20:45:58.659Z,94848.36
2018-12-15T20:48:26.958Z,94849.84
2018-12-15T20:50:55.415Z,94845.47
2018-12-15T20:53:23.875Z,94827.48
2018-12-15T20:55:52.333Z,94831.08
2018-12-15T20:58:20.903Z,94836.53
2018-12-15T21:00:49.296Z,94837.00
2018-12-15T21:03:17.900Z,94810.84
2018-12-15T21:05:46.923Z,94819.73
2018-12-15T21:08:15.495Z,94825.87
2018-12-15T21:10:44.080Z,94827.79
2018-12-15T21:13:12.503Z,94841.08
2018-12-15T21:15:44.379Z,94829.67
2018-12-15T21:18:12.711Z,94825.56
2018-12-15T21:20:43.932Z,94829.17
2018-12-15T21:23:12.214Z,94830.86
2018-12-15T21:25:40.572Z,94830.86
2018-12-15T21:28:08.895Z,94829.09
2018-12-15T21:30:37.168Z,94819.22
2018-12-15T21:33:05.525Z,94801.47
2018-12-15T21:35:34.008Z,94789.61
2018-12-15T21:38:02.355Z,94783.61
2018-12-15T21:40:30.867Z,94789.67
2018-12-15T21:42:59.270Z,94785.92
2018-12-15T21:45:28.173Z,94777.75
2018-12-15T21:47:57.798Z,94780.86
2018-12-15T21:50:26.348Z,94798.01
2018-12-15T21:52:54.662Z,94808.63
2018-12-15T21:55:24.516Z,94798.38
2018-12-15T21:57:53.056Z,94796.36
2018-12-15T22:00:21.386Z,94793.06
2018-12-15T22:02:49.955Z,94799.61
2018-12-15T22:05:18.427Z,94801.08
2018-12-15T22:07:46.800Z,94794.23
2018-12-15T22:10:15.743Z,94795.59
2018-12-15T22:12:44.183Z,94785.48
2018-12-15T22:15:12.683Z,94774.94
2018-12-15T22:17:41.113Z,94771.20
2018-12-15T22:20:10.268Z,94780.87
2018-12-15T22:22:39.281Z,94779.59
2018-12-15T22:25:08.213Z,94784.19
2018-12-15T22:27:36.746Z,94786.33
2018-12-15T22:30:06.158Z,94782.79
2018-12-15T22:32:34.577Z,94780.92
2018-12-15T22:35:03.333Z,94758.02
2018-12-15T22:37:31.883Z,94768.55
2018-12-15T22:40:00.721Z,94776.34
2018-12-15T22:42:29.284Z,94774.88
2018-12-15T22:44:57.657Z,94766.94
2018-12-15T22:47:26.295Z,94765.37
2018-12-15T22:49:54.493Z,94770.91
2018-12-15T22:52:22.903Z,94766.35
2018-12-15T22:54:51.224Z,94776.89
2018-12-15T22:57:19.551Z,94767.73
2018-12-15T22:59:47.714Z,94760.21
2018-12-15T23:02:16.028Z,94759.08
2018-12-15T23:04:44.303Z,94750.80
2018-12-15T23:07:12.496Z,94745.05
2018-12-15T23:09:40.655Z,94754.82
2018-12-15T23:12:08.938Z,94749.72
2018-12-15T23:14:37.265Z,94746.98
2018-12-15T23:17:05.564Z,94744.18
2018-12-15T23:19:34.050Z,94744.09
2018-12-15T23:22:03.185Z,94736.58
2018-12-15T23:24:31.471Z,94750.64
2018-12-15T23:27:03.271Z,94741.87
2018-12-15T23:29:31.748Z,94734.23
2018-12-15T23:32:01.246Z,94738.12
2018-12-15T23:34:29.549Z,94744.45
2018-12-15T23:36:58.009Z,94743.70
2018-12-15T23:39:26.351Z,94748.09
2018-12-15T23:41:54.570Z,94731.37
2018-12-15T23:44:22.838Z,94737.38
2018-12-15T23:46:51.125Z,94737.37
2018-12-15T23:49:19.333Z,94738.23
2018-12-15T23:51:47.824Z,94737.47
2018-12-15T23:54:16.342Z,94736.42
2018-12-15T23:56:44.715Z,94720.97
2018-12-15T23:59:13.020Z,94731.44
